CES6271 ZLXY-ZBHH
Flight info
| Callsign | CES6271 |
|---|---|
| Flight time | 1h 22m |
| Altitude | 29100 |
| Route | K0822S1130 WJC9W WJC W193 ALGOV W101 VALNI VALNI8ZA |
| Aircraft | A319/M-SDE3FGHIRWY/LB1 |
Departure
| Time | 2026-05-08 17:01 |
|---|---|
| Airport | Xi'an Xianyang International Airport (ZLXY) |
Arrival
| Time | 2026-05-08 18:23 |
|---|---|
| Airport | Hohhot Baita International Airport (ZBHH) |
| Time | Latitude | Longitude | Altitude | Speed | Heading |
|---|---|---|---|---|---|
| 2026-05-08 16:42 | 34.44656 | 108.75776 | 1520 ft | 0 kts | 319° |
| 2026-05-08 16:54 | 34.44657 | 108.75775 | 1521 ft | 1 kts | 319° |
| 2026-05-08 16:54 | 34.44680 | 108.75750 | 1521 ft | 7 kts | 319° |
| 2026-05-08 16:54 | 34.44727 | 108.75739 | 1521 ft | 8 kts | 26° |
| 2026-05-08 16:55 | 34.44774 | 108.75797 | 1521 ft | 13 kts | 49° |
| 2026-05-08 16:55 | 34.44825 | 108.75861 | 1521 ft | 9 kts | 27° |
| 2026-05-08 16:55 | 34.44891 | 108.75830 | 1521 ft | 14 kts | 322° |
| 2026-05-08 16:55 | 34.44990 | 108.75728 | 1521 ft | 22 kts | 319° |
| 2026-05-08 16:56 | 34.45114 | 108.75596 | 1518 ft | 24 kts | 318° |
| 2026-05-08 16:56 | 34.45243 | 108.75458 | 1521 ft | 22 kts | 319° |
| 2026-05-08 16:56 | 34.45291 | 108.75377 | 1521 ft | 11 kts | 269° |
| 2026-05-08 16:56 | 34.45240 | 108.75292 | 1521 ft | 18 kts | 229° |
| 2026-05-08 16:57 | 34.45133 | 108.75143 | 1521 ft | 27 kts | 229° |
| 2026-05-08 16:57 | 34.45008 | 108.74971 | 1520 ft | 28 kts | 228° |
| 2026-05-08 16:57 | 34.44881 | 108.74794 | 1522 ft | 28 kts | 229° |
| 2026-05-08 16:57 | 34.44752 | 108.74616 | 1522 ft | 28 kts | 229° |
| 2026-05-08 16:58 | 34.44619 | 108.74433 | 1521 ft | 29 kts | 228° |
| 2026-05-08 16:58 | 34.44485 | 108.74249 | 1521 ft | 29 kts | 229° |
| 2026-05-08 16:58 | 34.44351 | 108.74062 | 1521 ft | 29 kts | 229° |
| 2026-05-08 16:58 | 34.44219 | 108.73880 | 1521 ft | 28 kts | 228° |
| 2026-05-08 16:59 | 34.44132 | 108.73761 | 1520 ft | 9 kts | 232° |
| 2026-05-08 16:59 | 34.44120 | 108.73684 | 1522 ft | 10 kts | 289° |
| 2026-05-08 16:59 | 34.44172 | 108.73620 | 1523 ft | 11 kts | 319° |
| 2026-05-08 16:59 | 34.44228 | 108.73585 | 1522 ft | 9 kts | 20° |
| 2026-05-08 17:00 | 34.44274 | 108.73646 | 1522 ft | 12 kts | 49° |
| 2026-05-08 17:00 | 34.44439 | 108.73873 | 1521 ft | 74 kts | 49° |
| 2026-05-08 17:00 | 34.44941 | 108.74565 | 1523 ft | 142 kts | 49° |
| 2026-05-08 17:00 | 34.45692 | 108.75597 | 1819 ft | 170 kts | 48° |
| 2026-05-08 17:01 | 34.46470 | 108.76672 | 2623 ft | 170 kts | 49° |
| 2026-05-08 17:01 | 34.47398 | 108.77635 | 3194 ft | 188 kts | 29° |
| 2026-05-08 17:01 | 34.48687 | 108.78270 | 3629 ft | 212 kts | 19° |
| 2026-05-08 17:01 | 34.50170 | 108.78837 | 4132 ft | 233 kts | 17° |
| 2026-05-08 17:02 | 34.51802 | 108.79435 | 4747 ft | 258 kts | 17° |
| 2026-05-08 17:02 | 34.53581 | 108.80106 | 5509 ft | 275 kts | 17° |
| 2026-05-08 17:02 | 34.55423 | 108.80826 | 6563 ft | 280 kts | 17° |
| 2026-05-08 17:02 | 34.57264 | 108.81567 | 7594 ft | 284 kts | 17° |
| 2026-05-08 17:03 | 34.59163 | 108.82351 | 8703 ft | 286 kts | 18° |
| 2026-05-08 17:03 | 34.61051 | 108.83140 | 9787 ft | 288 kts | 18° |
| 2026-05-08 17:03 | 34.62944 | 108.83958 | 10514 ft | 303 kts | 22° |
| 2026-05-08 17:03 | 34.64872 | 108.85213 | 10947 ft | 326 kts | 33° |
| 2026-05-08 17:04 | 34.66806 | 108.86808 | 11705 ft | 336 kts | 33° |
| 2026-05-08 17:04 | 34.68731 | 108.88385 | 12559 ft | 341 kts | 33° |
| 2026-05-08 17:04 | 34.70718 | 108.90008 | 13425 ft | 347 kts | 33° |
| 2026-05-08 17:04 | 34.72741 | 108.91656 | 14232 ft | 353 kts | 33° |
| 2026-05-08 17:05 | 34.74790 | 108.93325 | 15017 ft | 356 kts | 33° |
| 2026-05-08 17:05 | 34.76856 | 108.95008 | 15833 ft | 359 kts | 33° |
| 2026-05-08 17:05 | 34.78943 | 108.96711 | 16616 ft | 363 kts | 33° |
| 2026-05-08 17:05 | 34.81055 | 108.98423 | 17380 ft | 367 kts | 31° |
| 2026-05-08 17:06 | 34.83347 | 108.99812 | 18133 ft | 371 kts | 20° |
| 2026-05-08 17:06 | 34.85810 | 109.00816 | 18833 ft | 375 kts | 17° |
| 2026-05-08 17:06 | 34.88305 | 109.01802 | 19484 ft | 379 kts | 17° |
| 2026-05-08 17:06 | 34.90829 | 109.02799 | 20136 ft | 384 kts | 17° |
| 2026-05-08 17:07 | 34.93382 | 109.03808 | 20791 ft | 388 kts | 16° |
| 2026-05-08 17:07 | 34.95965 | 109.04831 | 21428 ft | 393 kts | 16° |
| 2026-05-08 17:07 | 34.98579 | 109.05870 | 22072 ft | 397 kts | 16° |
| 2026-05-08 17:07 | 35.01219 | 109.06919 | 22718 ft | 401 kts | 15° |
| 2026-05-08 17:08 | 35.03891 | 109.07980 | 23353 ft | 406 kts | 15° |
| 2026-05-08 17:08 | 35.06592 | 109.09053 | 23921 ft | 411 kts | 15° |
| 2026-05-08 17:08 | 35.09322 | 109.10138 | 24433 ft | 414 kts | 15° |
| 2026-05-08 17:08 | 35.12075 | 109.11236 | 24945 ft | 418 kts | 14° |
| 2026-05-08 17:09 | 35.14852 | 109.12345 | 25452 ft | 422 kts | 14° |
| 2026-05-08 17:09 | 35.17653 | 109.13465 | 25931 ft | 425 kts | 14° |
| 2026-05-08 17:09 | 35.20473 | 109.14593 | 26409 ft | 429 kts | 14° |
| 2026-05-08 17:09 | 35.23317 | 109.15730 | 26871 ft | 432 kts | 13° |
| 2026-05-08 17:10 | 35.26186 | 109.16877 | 27341 ft | 435 kts | 13° |
| 2026-05-08 17:10 | 35.29038 | 109.18017 | 27819 ft | 438 kts | 13° |
| 2026-05-08 17:10 | 35.31948 | 109.19181 | 28300 ft | 442 kts | 13° |
| 2026-05-08 17:10 | 35.34877 | 109.20355 | 28769 ft | 445 kts | 13° |
| 2026-05-08 17:11 | 35.37836 | 109.21544 | 29160 ft | 449 kts | 13° |
| 2026-05-08 17:11 | 35.40801 | 109.22737 | 29249 ft | 443 kts | 13° |
| 2026-05-08 17:11 | 35.43669 | 109.23905 | 29260 ft | 428 kts | 12° |
| 2026-05-08 17:11 | 35.46476 | 109.25045 | 29257 ft | 422 kts | 12° |
| 2026-05-08 17:12 | 35.52030 | 109.27277 | 29262 ft | 418 kts | 12° |
| 2026-05-08 17:12 | 35.57558 | 109.29496 | 29255 ft | 418 kts | 12° |
| 2026-05-08 17:13 | 35.63082 | 109.31722 | 29261 ft | 417 kts | 12° |
| 2026-05-08 17:13 | 35.68608 | 109.33954 | 29251 ft | 417 kts | 12° |
| 2026-05-08 17:14 | 35.74115 | 109.36194 | 29247 ft | 417 kts | 12° |
| 2026-05-08 17:14 | 35.79672 | 109.38048 | 29258 ft | 409 kts | 1° |
| 2026-05-08 17:15 | 35.85311 | 109.38961 | 29247 ft | 409 kts | 1° |
| 2026-05-08 17:15 | 35.90950 | 109.39892 | 29253 ft | 409 kts | 2° |
| 2026-05-08 17:16 | 35.96583 | 109.40828 | 29240 ft | 409 kts | 2° |
| 2026-05-08 17:16 | 36.02219 | 109.41761 | 29244 ft | 408 kts | 2° |
| 2026-05-08 17:17 | 36.07812 | 109.42687 | 29238 ft | 409 kts | 2° |
| 2026-05-08 17:17 | 36.13454 | 109.43627 | 29236 ft | 409 kts | 2° |
| 2026-05-08 17:18 | 36.19091 | 109.44568 | 29229 ft | 409 kts | 2° |
| 2026-05-08 17:18 | 36.24728 | 109.45515 | 29228 ft | 408 kts | 2° |
| 2026-05-08 17:19 | 36.30352 | 109.46461 | 29220 ft | 408 kts | 2° |
| 2026-05-08 17:19 | 36.35983 | 109.47395 | 29221 ft | 408 kts | 1° |
| 2026-05-08 17:20 | 36.41606 | 109.48328 | 29215 ft | 407 kts | 0° |
| 2026-05-08 17:20 | 36.47213 | 109.48651 | 29214 ft | 403 kts | 356° |
| 2026-05-08 17:21 | 36.52815 | 109.48907 | 29211 ft | 403 kts | 355° |
| 2026-05-08 17:21 | 36.58412 | 109.49181 | 29214 ft | 402 kts | 356° |
| 2026-05-08 17:22 | 36.63990 | 109.49459 | 29218 ft | 401 kts | 355° |
| 2026-05-08 17:22 | 36.69551 | 109.49720 | 29216 ft | 399 kts | 355° |
| 2026-05-08 17:23 | 36.75091 | 109.49980 | 29213 ft | 398 kts | 355° |
| 2026-05-08 17:23 | 36.80612 | 109.50249 | 29214 ft | 396 kts | 355° |
| 2026-05-08 17:24 | 36.86112 | 109.50515 | 29210 ft | 394 kts | 355° |
| 2026-05-08 17:24 | 36.91590 | 109.50781 | 29211 ft | 393 kts | 355° |
| 2026-05-08 17:25 | 36.97002 | 109.51047 | 29203 ft | 391 kts | 355° |
| 2026-05-08 17:25 | 37.02427 | 109.51304 | 29251 ft | 389 kts | 354° |
| 2026-05-08 17:26 | 37.07793 | 109.51555 | 29168 ft | 384 kts | 354° |
| 2026-05-08 17:26 | 37.13127 | 109.51818 | 29154 ft | 384 kts | 354° |
| 2026-05-08 17:27 | 37.18467 | 109.52073 | 29145 ft | 384 kts | 355° |
| 2026-05-08 17:27 | 37.23812 | 109.52332 | 29136 ft | 384 kts | 355° |
| 2026-05-08 17:28 | 37.29163 | 109.52593 | 29131 ft | 385 kts | 355° |
| 2026-05-08 17:28 | 37.34522 | 109.52853 | 29125 ft | 385 kts | 355° |
| 2026-05-08 17:29 | 37.39889 | 109.53119 | 29119 ft | 386 kts | 355° |
| 2026-05-08 17:29 | 37.45261 | 109.53382 | 29120 ft | 386 kts | 356° |
| 2026-05-08 17:30 | 37.50637 | 109.53640 | 29111 ft | 387 kts | 356° |
| 2026-05-08 17:30 | 37.56016 | 109.53908 | 29115 ft | 387 kts | 356° |
| 2026-05-08 17:31 | 37.61397 | 109.54174 | 29099 ft | 387 kts | 356° |
| 2026-05-08 17:31 | 37.66746 | 109.54433 | 29104 ft | 387 kts | 356° |
| 2026-05-08 17:32 | 37.72133 | 109.54695 | 29096 ft | 388 kts | 356° |
| 2026-05-08 17:32 | 37.77523 | 109.54966 | 29093 ft | 388 kts | 356° |
| 2026-05-08 17:33 | 37.82914 | 109.55238 | 29085 ft | 388 kts | 357° |
| 2026-05-08 17:33 | 37.88306 | 109.55507 | 29079 ft | 388 kts | 357° |
| 2026-05-08 17:34 | 37.93702 | 109.55771 | 29083 ft | 388 kts | 357° |
| 2026-05-08 17:34 | 37.99097 | 109.56031 | 29078 ft | 388 kts | 357° |
| 2026-05-08 17:35 | 38.04492 | 109.56295 | 29076 ft | 388 kts | 357° |
| 2026-05-08 17:35 | 38.09890 | 109.56559 | 29077 ft | 388 kts | 357° |
| 2026-05-08 17:36 | 38.15287 | 109.56824 | 29078 ft | 388 kts | 357° |
| 2026-05-08 17:36 | 38.20683 | 109.57089 | 29074 ft | 388 kts | 357° |
| 2026-05-08 17:37 | 38.26070 | 109.57365 | 29071 ft | 388 kts | 357° |
| 2026-05-08 17:37 | 38.31464 | 109.57641 | 29073 ft | 388 kts | 357° |
| 2026-05-08 17:38 | 38.35945 | 109.57867 | 29076 ft | 388 kts | 357° |
| 2026-05-08 17:38 | 38.41331 | 109.58789 | 29076 ft | 394 kts | 5° |
| 2026-05-08 17:39 | 38.46709 | 109.60146 | 29073 ft | 394 kts | 5° |
| 2026-05-08 17:39 | 38.52093 | 109.61509 | 29070 ft | 394 kts | 5° |
| 2026-05-08 17:40 | 38.57469 | 109.62870 | 29070 ft | 394 kts | 5° |
| 2026-05-08 17:40 | 38.62852 | 109.64234 | 29068 ft | 394 kts | 5° |
| 2026-05-08 17:41 | 38.68235 | 109.65595 | 29068 ft | 394 kts | 5° |
| 2026-05-08 17:41 | 38.73618 | 109.66969 | 29070 ft | 395 kts | 5° |
| 2026-05-08 17:42 | 38.79008 | 109.68325 | 29068 ft | 395 kts | 5° |
| 2026-05-08 17:42 | 38.84394 | 109.69669 | 29070 ft | 394 kts | 5° |
| 2026-05-08 17:43 | 38.89786 | 109.71016 | 29065 ft | 394 kts | 5° |
| 2026-05-08 17:43 | 38.95170 | 109.72370 | 29065 ft | 394 kts | 5° |
| 2026-05-08 17:44 | 39.00523 | 109.73717 | 29056 ft | 394 kts | 5° |
| 2026-05-08 17:44 | 39.05907 | 109.75074 | 29055 ft | 395 kts | 5° |
| 2026-05-08 17:45 | 39.11293 | 109.76436 | 29048 ft | 394 kts | 5° |
| 2026-05-08 17:45 | 39.16684 | 109.77789 | 29046 ft | 394 kts | 5° |
| 2026-05-08 17:46 | 39.22069 | 109.79145 | 29043 ft | 395 kts | 5° |
| 2026-05-08 17:46 | 39.27460 | 109.80506 | 29040 ft | 395 kts | 5° |
| 2026-05-08 17:47 | 39.32850 | 109.81870 | 29039 ft | 395 kts | 5° |
| 2026-05-08 17:47 | 39.37331 | 109.83008 | 29041 ft | 395 kts | 5° |
| 2026-05-08 17:48 | 39.43634 | 109.84608 | 29033 ft | 395 kts | 5° |
| 2026-05-08 17:48 | 39.49023 | 109.85972 | 29041 ft | 394 kts | 4° |
| 2026-05-08 17:49 | 39.54427 | 109.86965 | 29039 ft | 391 kts | 0° |
| 2026-05-08 17:49 | 39.59835 | 109.87666 | 29038 ft | 390 kts | 359° |
| 2026-05-08 17:50 | 39.65247 | 109.88387 | 29038 ft | 391 kts | 360° |
| 2026-05-08 17:50 | 39.70612 | 109.89162 | 29030 ft | 391 kts | 0° |
| 2026-05-08 17:51 | 39.76019 | 109.89970 | 29032 ft | 391 kts | 0° |
| 2026-05-08 17:51 | 39.81426 | 109.90783 | 29023 ft | 391 kts | 0° |
| 2026-05-08 17:52 | 39.86830 | 109.91597 | 29017 ft | 391 kts | 0° |
| 2026-05-08 17:53 | 39.94941 | 109.92800 | 29007 ft | 391 kts | 0° |
| 2026-05-08 17:53 | 40.00344 | 109.93601 | 28998 ft | 391 kts | 0° |
| 2026-05-08 17:54 | 40.05745 | 109.94404 | 28992 ft | 391 kts | 0° |
| 2026-05-08 17:54 | 40.11144 | 109.95221 | 28979 ft | 390 kts | 0° |
| 2026-05-08 17:55 | 40.16541 | 109.96080 | 28971 ft | 393 kts | 4° |
| 2026-05-08 17:55 | 40.19199 | 109.97066 | 28968 ft | 403 kts | 15° |
| 2026-05-08 17:55 | 40.21715 | 109.98757 | 28964 ft | 412 kts | 27° |
| 2026-05-08 17:56 | 40.26215 | 110.03551 | 28964 ft | 418 kts | 34° |
| 2026-05-08 17:56 | 40.30657 | 110.08468 | 28960 ft | 418 kts | 33° |
| 2026-05-08 17:57 | 40.35103 | 110.13381 | 28960 ft | 418 kts | 34° |
| 2026-05-08 17:57 | 40.39285 | 110.18748 | 28955 ft | 429 kts | 49° |
| 2026-05-08 17:57 | 40.40770 | 110.22119 | 28957 ft | 437 kts | 62° |
| 2026-05-08 17:58 | 40.41736 | 110.25925 | 28955 ft | 444 kts | 74° |
| 2026-05-08 17:58 | 40.42089 | 110.29962 | 28957 ft | 449 kts | 87° |
| 2026-05-08 17:58 | 40.42060 | 110.34063 | 28957 ft | 449 kts | 88° |
| 2026-05-08 17:59 | 40.41992 | 110.42268 | 28960 ft | 450 kts | 88° |
| 2026-05-08 17:59 | 40.41926 | 110.50479 | 28966 ft | 450 kts | 88° |
| 2026-05-08 18:00 | 40.41855 | 110.58701 | 28969 ft | 450 kts | 88° |
| 2026-05-08 18:00 | 40.41743 | 110.71029 | 28976 ft | 451 kts | 88° |
| 2026-05-08 18:01 | 40.41662 | 110.79254 | 28986 ft | 451 kts | 88° |
| 2026-05-08 18:01 | 40.41573 | 110.87478 | 28994 ft | 451 kts | 89° |
| 2026-05-08 18:02 | 40.41484 | 110.94321 | 28998 ft | 451 kts | 89° |
| 2026-05-08 18:02 | 40.41356 | 111.03938 | 29000 ft | 451 kts | 88° |
| 2026-05-08 18:03 | 40.41251 | 111.12166 | 29002 ft | 451 kts | 88° |
| 2026-05-08 18:03 | 40.41144 | 111.20379 | 29007 ft | 450 kts | 89° |
| 2026-05-08 18:04 | 40.41016 | 111.28594 | 29017 ft | 450 kts | 89° |
| 2026-05-08 18:04 | 40.40952 | 111.32682 | 28481 ft | 448 kts | 89° |
| 2026-05-08 18:04 | 40.40900 | 111.36773 | 27774 ft | 448 kts | 89° |
| 2026-05-08 18:05 | 40.40859 | 111.40848 | 27436 ft | 444 kts | 89° |
| 2026-05-08 18:05 | 40.41091 | 111.44836 | 26817 ft | 435 kts | 78° |
| 2026-05-08 18:05 | 40.41767 | 111.48679 | 26290 ft | 429 kts | 69° |
| 2026-05-08 18:05 | 40.42833 | 111.52238 | 25816 ft | 422 kts | 60° |
| 2026-05-08 18:06 | 40.44090 | 111.55757 | 25344 ft | 419 kts | 61° |
| 2026-05-08 18:06 | 40.45311 | 111.59209 | 24915 ft | 416 kts | 61° |
| 2026-05-08 18:06 | 40.46519 | 111.62645 | 24477 ft | 413 kts | 61° |
| 2026-05-08 18:06 | 40.47698 | 111.66011 | 24053 ft | 410 kts | 62° |
| 2026-05-08 18:07 | 40.48884 | 111.69406 | 23629 ft | 407 kts | 62° |
| 2026-05-08 18:07 | 40.50074 | 111.72817 | 23133 ft | 404 kts | 62° |
| 2026-05-08 18:07 | 40.51244 | 111.76158 | 22639 ft | 401 kts | 62° |
| 2026-05-08 18:07 | 40.52391 | 111.79429 | 22177 ft | 398 kts | 62° |
| 2026-05-08 18:08 | 40.53544 | 111.82724 | 21699 ft | 395 kts | 62° |
| 2026-05-08 18:08 | 40.54686 | 111.85991 | 21229 ft | 392 kts | 62° |
| 2026-05-08 18:08 | 40.55820 | 111.89243 | 20762 ft | 390 kts | 62° |
| 2026-05-08 18:08 | 40.56943 | 111.92469 | 20295 ft | 387 kts | 62° |
| 2026-05-08 18:09 | 40.58061 | 111.95686 | 19840 ft | 385 kts | 62° |
| 2026-05-08 18:09 | 40.59220 | 111.98834 | 19391 ft | 380 kts | 55° |
| 2026-05-08 18:09 | 40.60874 | 112.01467 | 18969 ft | 369 kts | 37° |
| 2026-05-08 18:09 | 40.62976 | 112.03295 | 18533 ft | 358 kts | 19° |
| 2026-05-08 18:10 | 40.65311 | 112.04230 | 18099 ft | 347 kts | 3° |
| 2026-05-08 18:10 | 40.67682 | 112.04286 | 17600 ft | 337 kts | 347° |
| 2026-05-08 18:10 | 40.69925 | 112.03540 | 17123 ft | 330 kts | 335° |
| 2026-05-08 18:10 | 40.72090 | 112.02538 | 16639 ft | 330 kts | 335° |
| 2026-05-08 18:11 | 40.74273 | 112.01586 | 16185 ft | 333 kts | 341° |
| 2026-05-08 18:11 | 40.76606 | 112.01480 | 15762 ft | 343 kts | 5° |
| 2026-05-08 18:11 | 40.78854 | 112.02641 | 15344 ft | 354 kts | 30° |
| 2026-05-08 18:11 | 40.80583 | 112.04965 | 14934 ft | 361 kts | 57° |
| 2026-05-08 18:12 | 40.81527 | 112.08041 | 14530 ft | 364 kts | 72° |
| 2026-05-08 18:12 | 40.82261 | 112.11239 | 14131 ft | 363 kts | 73° |
| 2026-05-08 18:12 | 40.82983 | 112.14430 | 13750 ft | 362 kts | 73° |
| 2026-05-08 18:12 | 40.83700 | 112.17607 | 13310 ft | 361 kts | 73° |
| 2026-05-08 18:13 | 40.84431 | 112.20767 | 12771 ft | 359 kts | 72° |
| 2026-05-08 18:13 | 40.85183 | 112.23891 | 12408 ft | 352 kts | 72° |
| 2026-05-08 18:13 | 40.85927 | 112.26903 | 12270 ft | 338 kts | 71° |
| 2026-05-08 18:13 | 40.86741 | 112.29742 | 12142 ft | 324 kts | 58° |
| 2026-05-08 18:14 | 40.88195 | 112.31867 | 12019 ft | 304 kts | 29° |
| 2026-05-08 18:14 | 40.90082 | 112.32897 | 11716 ft | 288 kts | 1° |
| 2026-05-08 18:14 | 40.92013 | 112.32783 | 11347 ft | 272 kts | 338° |
| 2026-05-08 18:14 | 40.93814 | 112.32075 | 10930 ft | 269 kts | 331° |
| 2026-05-08 18:15 | 40.95227 | 112.30713 | 10538 ft | 247 kts | 297° |
| 2026-05-08 18:15 | 40.95676 | 112.28652 | 10161 ft | 231 kts | 262° |
| 2026-05-08 18:15 | 40.95298 | 112.26575 | 9713 ft | 230 kts | 250° |
| 2026-05-08 18:15 | 40.94801 | 112.24571 | 9565 ft | 231 kts | 251° |
| 2026-05-08 18:16 | 40.94327 | 112.22566 | 9299 ft | 225 kts | 251° |
| 2026-05-08 18:16 | 40.93883 | 112.20644 | 9013 ft | 218 kts | 252° |
| 2026-05-08 18:16 | 40.93448 | 112.18764 | 8731 ft | 211 kts | 251° |
| 2026-05-08 18:16 | 40.93020 | 112.16916 | 8454 ft | 209 kts | 252° |
| 2026-05-08 18:17 | 40.92595 | 112.15087 | 8184 ft | 207 kts | 251° |
| 2026-05-08 18:17 | 40.92173 | 112.13267 | 7924 ft | 207 kts | 251° |
| 2026-05-08 18:17 | 40.91749 | 112.11441 | 7653 ft | 208 kts | 251° |
| 2026-05-08 18:17 | 40.91326 | 112.09623 | 7385 ft | 206 kts | 251° |
| 2026-05-08 18:18 | 40.90908 | 112.07823 | 7120 ft | 203 kts | 251° |
| 2026-05-08 18:18 | 40.90494 | 112.06043 | 6870 ft | 201 kts | 250° |
| 2026-05-08 18:18 | 40.90081 | 112.04273 | 6608 ft | 202 kts | 250° |
| 2026-05-08 18:18 | 40.89675 | 112.02532 | 6367 ft | 193 kts | 250° |
| 2026-05-08 18:19 | 40.89295 | 112.00897 | 6108 ft | 179 kts | 250° |
| 2026-05-08 18:19 | 40.88940 | 111.99379 | 5891 ft | 168 kts | 250° |
| 2026-05-08 18:19 | 40.88609 | 111.97963 | 5677 ft | 153 kts | 250° |
| 2026-05-08 18:19 | 40.88312 | 111.96692 | 5475 ft | 138 kts | 250° |
| 2026-05-08 18:20 | 40.88034 | 111.95504 | 5302 ft | 133 kts | 250° |
| 2026-05-08 18:20 | 40.87763 | 111.94348 | 5125 ft | 131 kts | 250° |
| 2026-05-08 18:20 | 40.87493 | 111.93194 | 4933 ft | 130 kts | 251° |
| 2026-05-08 18:20 | 40.87226 | 111.92056 | 4774 ft | 131 kts | 251° |
| 2026-05-08 18:21 | 40.86957 | 111.90912 | 4584 ft | 131 kts | 250° |
| 2026-05-08 18:21 | 40.86686 | 111.89755 | 4390 ft | 133 kts | 250° |
| 2026-05-08 18:21 | 40.86411 | 111.88575 | 4239 ft | 134 kts | 250° |
| 2026-05-08 18:21 | 40.86132 | 111.87384 | 4069 ft | 136 kts | 250° |
| 2026-05-08 18:22 | 40.85852 | 111.86187 | 3877 ft | 136 kts | 251° |
| 2026-05-08 18:22 | 40.85567 | 111.84988 | 3674 ft | 137 kts | 251° |
| 2026-05-08 18:22 | 40.85289 | 111.83806 | 3530 ft | 126 kts | 252° |
| 2026-05-08 18:22 | 40.85069 | 111.82871 | 3527 ft | 83 kts | 253° |
| 2026-05-08 18:23 | 40.84948 | 111.82356 | 3524 ft | 37 kts | 252° |
| 2026-05-08 18:23 | 40.84906 | 111.82028 | 3525 ft | 36 kts | 274° |
| 2026-05-08 18:23 | 40.84930 | 111.81861 | 3530 ft | 7 kts | 284° |
| 2026-05-08 18:23 | 40.84945 | 111.81803 | 3532 ft | 7 kts | 300° |
| 2026-05-08 18:24 | 40.84985 | 111.81777 | 3533 ft | 7 kts | 342° |
| 2026-05-08 18:24 | 40.85022 | 111.81762 | 3533 ft | 9 kts | 342° |
| 2026-05-08 18:24 | 40.85111 | 111.81725 | 3534 ft | 11 kts | 343° |
| 2026-05-08 18:24 | 40.85164 | 111.81704 | 3534 ft | 13 kts | 342° |
| 2026-05-08 18:25 | 40.85237 | 111.81671 | 3534 ft | 8 kts | 331° |
| 2026-05-08 18:25 | 40.85235 | 111.81585 | 3534 ft | 4 kts | 261° |
| 2026-05-08 18:25 | 40.85258 | 111.81560 | 3534 ft | 6 kts | 340° |
| 2026-05-08 18:25 | 40.85301 | 111.81543 | 3534 ft | 7 kts | 343° |
| 2026-05-08 18:26 | 40.85307 | 111.81541 | 3534 ft | 0 kts | 343° |